Columbus, Ohio
Traffic Map
Current Weather Conditions
Columbus, Ohio
Clear
Clear
55°
Feels Like: 55°
Wind Chill: 55° Ceiling: Unl
Heat Index: 55° Visibility: 10mi
Dew Point: 50° Wind: 0mph
Humidity: 83% Direction: ° ()
Pressure: 29.91in Gusts: 0mph
Raw Report DataKCMH 300551Z 00000KT 10SM CLR 13/10 A2991 RMK AO2 SLP124 T01280100 10239 20128 56005
Traffic Incident Summary
Active as of:
Severity:
Category:
InformationThere was an issue retrieving the traffic information for this location. Please try a different location or try again shortly.
Advertisements
Track Severe Weather on mobile